Terminal Aerodrome Forecast
Issued by NWS

Home | Current Version | Previous Version | Text Only | Print | Product List | Glossary On
Versions: 1 2 3 4 5 6 7 8 9 10 11 12 13 14
000
FTUS42 KTBW 202300
TAFPIE
TAF
KPIE 202328Z 2100/2124 24004KT P6SM BKN090 BKN250
     FM211200 12006KT P6SM SCT020 BKN080 BKN250
     FM212100 19006KT P6SM VCSH OVC050=

USA.gov is the U.S. government's official web portal to all federal, state and local government web resources and services.